createdAt,value
2023-05-04T00:04:25.098Z,102321.72
2023-05-04T00:09:27.911Z,102318.50
2023-05-04T00:14:30.654Z,102316.78
2023-05-04T00:19:35.169Z,102312.59
2023-05-04T00:24:38.669Z,102308.50
2023-05-04T00:29:42.487Z,102304.09
2023-05-04T00:34:46.581Z,102300.84
2023-05-04T00:39:49.362Z,102299.56
2023-05-04T00:44:52.181Z,102288.06
2023-05-04T00:49:56.589Z,102285.75
2023-05-04T00:55:03.227Z,102280.91
2023-05-04T01:00:08.494Z,102282.28
2023-05-04T01:05:13.450Z,102285.81
2023-05-04T01:10:21.010Z,102269.69
2023-05-04T01:15:24.273Z,102270.88
2023-05-04T01:20:28.512Z,102264.91
2023-05-04T01:25:36.888Z,102268.31
2023-05-04T01:30:44.674Z,102258.25
2023-05-04T01:35:47.963Z,102256.78
2023-05-04T01:40:52.125Z,102258.13
2023-05-04T01:45:54.961Z,102265.00
2023-05-04T01:50:57.868Z,102256.97
2023-05-04T01:56:01.970Z,102248.53
2023-05-04T02:01:05.119Z,102236.66
2023-05-04T02:06:08.472Z,102237.84
2023-05-04T02:11:14.615Z,102240.16
2023-05-04T02:16:17.521Z,102238.16
2023-05-04T02:21:20.688Z,102240.91
2023-05-04T02:26:25.036Z,102223.72
2023-05-04T02:31:27.834Z,102230.56
2023-05-04T02:36:30.725Z,102232.69
2023-05-04T02:41:34.923Z,102235.09
2023-05-04T02:46:37.664Z,102225.09
2023-05-04T02:51:40.498Z,102224.59
2023-05-04T02:56:45.157Z,102219.81
2023-05-04T03:01:48.570Z,102219.53
2023-05-04T03:06:51.464Z,102216.72
2023-05-04T03:11:56.174Z,102220.66
2023-05-04T03:16:59.425Z,102206.16
2023-05-04T03:22:02.624Z,102202.09
2023-05-04T03:27:07.491Z,102205.03
2023-05-04T03:32:13.219Z,102203.97
2023-05-04T03:37:16.977Z,102193.75
2023-05-04T03:42:21.314Z,102206.88
2023-05-04T03:47:24.202Z,102201.41
2023-05-04T03:52:27.112Z,102208.97
2023-05-04T03:57:31.572Z,102209.44
2023-05-04T04:02:37.358Z,102205.72
2023-05-04T04:07:41.773Z,102203.13
2023-05-04T04:12:48.261Z,102202.28
2023-05-04T04:17:51.096Z,102208.56
2023-05-04T04:22:53.973Z,102199.16
2023-05-04T04:27:58.613Z,102204.59
2023-05-04T04:33:02.234Z,102200.81
2023-05-04T04:38:22.554Z,102204.38
2023-05-04T04:43:26.843Z,102193.13
2023-05-04T04:48:29.784Z,102201.25
2023-05-04T04:53:33.648Z,102199.44
2023-05-04T04:58:37.909Z,102202.63
2023-05-04T05:03:40.691Z,102202.25
2023-05-04T05:08:43.910Z,102204.41
2023-05-04T05:13:48.171Z,102209.34
2023-05-04T05:18:51.041Z,102215.03
2023-05-04T05:23:53.770Z,102214.31
2023-05-04T05:28:57.950Z,102218.59
2023-05-04T05:34:00.894Z,102224.06
2023-05-04T05:39:03.690Z,102217.56
2023-05-04T05:44:08.277Z,102213.28
2023-05-04T05:49:11.471Z,102212.38
2023-05-04T05:54:14.276Z,102199.69
2023-05-04T05:59:18.418Z,102195.66
2023-05-04T06:04:21.166Z,102202.44
2023-05-04T06:09:23.997Z,102196.81
2023-05-04T06:14:28.107Z,102200.69
2023-05-04T06:19:31.618Z,102195.81
2023-05-04T06:24:34.409Z,102191.84
2023-05-04T06:29:40.695Z,102185.63
2023-05-04T06:34:45.424Z,102190.38
2023-05-04T06:39:48.573Z,102190.38
2023-05-04T06:44:53.238Z,102185.41
2023-05-04T06:49:56.071Z,102196.34
2023-05-04T06:55:00.029Z,102192.41
2023-05-04T07:00:05.322Z,102187.63
2023-05-04T07:05:09.035Z,102182.94
2023-05-04T07:10:12.165Z,102166.78
2023-05-04T07:15:16.717Z,102158.34
2023-05-04T07:20:22.863Z,102158.59
2023-05-04T07:25:28.063Z,102158.53
2023-05-04T07:30:32.344Z,102149.06
2023-05-04T07:35:35.124Z,102148.16
2023-05-04T07:40:37.889Z,102142.28
2023-05-04T07:45:42.282Z,102137.00
2023-05-04T07:50:45.242Z,102129.31
2023-05-04T07:55:48.295Z,102127.72
2023-05-04T08:00:52.601Z,102132.38
2023-05-04T08:05:55.737Z,102121.75
2023-05-04T08:11:11.628Z,102118.91
2023-05-04T08:16:17.238Z,102117.50
2023-05-04T08:21:20.950Z,102119.97
2023-05-04T08:26:24.416Z,102120.56
2023-05-04T08:31:28.645Z,102106.41
2023-05-04T08:36:31.759Z,102102.25
2023-05-04T08:41:34.692Z,102098.72
2023-05-04T08:46:38.966Z,102098.13
2023-05-04T08:51:43.679Z,102088.78
2023-05-04T08:56:47.593Z,102089.22
2023-05-04T09:01:57.040Z,102090.84
2023-05-04T09:06:59.902Z,102084.19
2023-05-04T09:12:02.724Z,102085.69
2023-05-04T09:17:16.355Z,102067.13
2023-05-04T09:22:20.378Z,102073.78
2023-05-04T09:27:23.398Z,102068.50
2023-05-04T09:32:28.939Z,102081.03
2023-05-04T09:37:31.783Z,102058.00
2023-05-04T09:42:34.521Z,102056.38
2023-05-04T09:47:39.949Z,102051.97
2023-05-04T09:52:44.009Z,102054.41
2023-05-04T09:57:48.328Z,102052.59
2023-05-04T10:02:53.254Z,102047.50
2023-05-04T10:08:00.101Z,102038.09
2023-05-04T10:13:03.235Z,102037.66
2023-05-04T10:18:19.537Z,102032.91
2023-05-04T10:23:49.289Z,102019.22
2023-05-04T10:29:02.206Z,102014.06
2023-05-04T10:34:06.685Z,102021.75
2023-05-04T10:39:19.723Z,102016.06
2023-05-04T10:44:22.471Z,102001.47
2023-05-04T10:49:26.868Z,101993.56
2023-05-04T10:54:29.749Z,101968.28
2023-05-04T10:59:34.245Z,101978.72
2023-05-04T11:04:40.322Z,101975.00
2023-05-04T11:09:44.386Z,101963.66
2023-05-04T11:14:47.144Z,101955.03
2023-05-04T11:19:53.002Z,101953.38
2023-05-04T11:24:56.338Z,101945.47
2023-05-04T11:30:00.366Z,101937.19
2023-05-04T11:35:06.391Z,101932.78
2023-05-04T11:40:11.825Z,101934.59
2023-05-04T11:45:16.986Z,101929.38
2023-05-04T11:50:22.221Z,101927.91
2023-05-04T11:55:30.481Z,101931.22
2023-05-04T12:00:41.561Z,101919.00
2023-05-04T12:05:49.329Z,101909.97
2023-05-04T12:10:52.108Z,101914.16
2023-05-04T12:15:54.963Z,101903.41
2023-05-04T12:21:08.898Z,101902.34
2023-05-04T12:26:13.251Z,101896.28
2023-05-04T12:31:16.148Z,101889.38
2023-05-04T12:36:20.553Z,101884.88
2023-05-04T12:41:23.372Z,101877.69
2023-05-04T12:46:26.168Z,101866.47
2023-05-04T12:51:32.064Z,101855.91
2023-05-04T12:56:35.063Z,101861.50
2023-05-04T13:01:37.891Z,101859.06
2023-05-04T13:06:43.841Z,101863.00
2023-05-04T13:11:47.547Z,101858.84
2023-05-04T13:16:51.183Z,101842.91
2023-05-04T13:21:55.923Z,101833.03
2023-05-04T13:26:59.382Z,101817.59
2023-05-04T13:32:02.746Z,101809.06
2023-05-04T13:37:07.288Z,101804.72
2023-05-04T13:42:10.123Z,101806.34
2023-05-04T13:47:13.684Z,101801.78
2023-05-04T13:52:17.879Z,101798.38
2023-05-04T13:57:20.581Z,101784.88
2023-05-04T14:02:23.601Z,101789.38
2023-05-04T14:07:28.006Z,101772.16
2023-05-04T14:12:31.829Z,101762.78
2023-05-04T14:17:34.732Z,101757.28
2023-05-04T14:22:41.085Z,101752.06
2023-05-04T14:27:44.291Z,101752.78
2023-05-04T14:32:47.263Z,101738.97
2023-05-04T14:37:51.460Z,101726.34
2023-05-04T14:42:54.202Z,101719.44
2023-05-04T14:47:57.044Z,101720.47
2023-05-04T14:53:01.180Z,101708.66
2023-05-04T14:58:03.909Z,101711.47
2023-05-04T15:03:07.257Z,101708.91
2023-05-04T15:08:11.438Z,101706.75
2023-05-04T15:13:15.838Z,101701.56
2023-05-04T15:18:18.849Z,101691.19
2023-05-04T15:23:22.959Z,101696.31
2023-05-04T15:28:26.152Z,101690.69
2023-05-04T15:33:28.915Z,101683.47
2023-05-04T15:38:33.086Z,101684.34
2023-05-04T15:43:36.142Z,101675.28
2023-05-04T15:48:38.997Z,101662.94
2023-05-04T15:53:43.196Z,101674.31
2023-05-04T15:58:46.260Z,101660.16
2023-05-04T16:03:49.134Z,101654.09
2023-05-04T16:08:53.366Z,101647.75
2023-05-04T16:13:56.699Z,101649.13
2023-05-04T16:18:59.577Z,101651.47
2023-05-04T16:24:03.702Z,101641.94
2023-05-04T16:29:06.783Z,101639.31
2023-05-04T16:34:09.564Z,101632.56
2023-05-04T16:39:14.642Z,101634.91
2023-05-04T16:44:17.584Z,101625.72
2023-05-04T16:49:21.392Z,101629.56
2023-05-04T16:54:26.064Z,101633.00
2023-05-04T16:59:29.311Z,101631.63
2023-05-04T17:04:32.334Z,101637.00
2023-05-04T17:09:36.787Z,101631.50
2023-05-04T17:14:39.582Z,101615.31
2023-05-04T17:19:42.436Z,101616.06
2023-05-04T17:24:46.613Z,101624.81
2023-05-04T17:29:49.456Z,101621.47
2023-05-04T17:34:52.297Z,101631.50
2023-05-04T17:39:56.999Z,101628.59
2023-05-04T17:44:59.912Z,101635.66
2023-05-04T17:50:04.610Z,101623.84
2023-05-04T17:55:09.871Z,101635.38
2023-05-04T18:00:14.333Z,101637.88
2023-05-04T18:05:17.524Z,101634.47
2023-05-04T18:10:21.950Z,101635.09
2023-05-04T18:15:25.099Z,101639.78
2023-05-04T18:20:28.574Z,101647.03
2023-05-04T18:26:00.386Z,101658.28
2023-05-04T18:31:33.406Z,101660.75
2023-05-04T18:36:40.754Z,101662.16
2023-05-04T18:41:46.156Z,101665.59
2023-05-04T18:46:52.762Z,101675.50
2023-05-04T18:52:06.291Z,101677.03
2023-05-04T18:57:14.514Z,101673.53
2023-05-04T19:02:17.560Z,101677.72
2023-05-04T19:07:20.477Z,101681.72
2023-05-04T19:12:24.939Z,101680.63
2023-05-04T19:17:28.062Z,101685.97
2023-05-04T19:22:31.938Z,101688.00
2023-05-04T19:27:36.371Z,101681.56
2023-05-04T19:32:39.589Z,101685.47
2023-05-04T19:37:42.770Z,101683.81
2023-05-04T19:43:00.653Z,101687.66
2023-05-04T19:48:06.577Z,101685.47
2023-05-04T19:53:09.530Z,101693.34
2023-05-04T19:58:16.464Z,101684.53
2023-05-04T20:03:22.534Z,101674.22
2023-05-04T20:08:26.844Z,101677.50
2023-05-04T20:13:31.172Z,101674.78
2023-05-04T20:18:34.205Z,101674.56
2023-05-04T20:23:37.268Z,101668.94
2023-05-04T20:28:41.463Z,101678.47
2023-05-04T20:33:44.443Z,101667.16
2023-05-04T20:38:50.480Z,101678.34
2023-05-04T20:43:54.653Z,101681.16
2023-05-04T20:49:02.800Z,101664.22
2023-05-04T20:54:08.594Z,101664.34
2023-05-04T20:59:12.773Z,101668.06
2023-05-04T21:04:17.549Z,101667.75
2023-05-04T21:09:21.554Z,101656.22
2023-05-04T21:14:25.792Z,101666.25
2023-05-04T21:19:29.331Z,101669.88
2023-05-04T21:24:33.125Z,101659.03
2023-05-04T21:29:38.309Z,101656.94
2023-05-04T21:34:41.142Z,101663.47
2023-05-04T21:39:43.912Z,101660.50
2023-05-04T21:44:48.012Z,101666.50
2023-05-04T21:49:51.560Z,101669.88
2023-05-04T21:54:54.284Z,101674.19
2023-05-04T21:59:58.469Z,101677.31
2023-05-04T22:05:01.228Z,101663.06
2023-05-04T22:10:04.303Z,101667.81
2023-05-04T22:15:10.602Z,101658.34
2023-05-04T22:20:14.230Z,101665.09
2023-05-04T22:25:18.422Z,101659.63
2023-05-04T22:30:23.025Z,101665.09
2023-05-04T22:35:25.778Z,101672.00
2023-05-04T22:40:28.527Z,101667.09
2023-05-04T22:45:35.658Z,101675.41
2023-05-04T22:50:39.034Z,101660.09
2023-05-04T22:55:42.142Z,101665.94
2023-05-04T23:00:47.881Z,101668.91
2023-05-04T23:05:50.623Z,101661.53
2023-05-04T23:10:53.479Z,101664.19
2023-05-04T23:15:57.755Z,101664.44
2023-05-04T23:21:00.550Z,101657.84
2023-05-04T23:26:03.262Z,101665.06
2023-05-04T23:31:07.494Z,101666.44
2023-05-04T23:36:10.573Z,101656.34
2023-05-04T23:41:13.357Z,101658.44
2023-05-04T23:46:17.552Z,101654.13
2023-05-04T23:51:21.200Z,101649.34
2023-05-04T23:56:24.036Z,101636.06
